Plymouth, Michigan
Current Conditions -  °F | °C
As of 5:53 AM on Friday 24 Oct 2014 (Local Time) from KYIP Reporting Station
Haze Haze  
Wind Chill: 39°   Ceiling: Unl
Heat Index: 39°   Visibility: 4mi
Dew Point: 34°   Wind: 0mph
Humidity: 82%   Direction: NA
Pressure: 30.09"   Gusts: NA
Location:  42.37°N, 83.47°W
Report Text: KYIP 240953Z AUTO 00000KT 4SM HZ CLR 04/01 A3009 RMK AO2 SLP190 T00390011 TSNO
Loading
Personal Weather Stations






























Interactive Weather Map
Tropical Storm Tracking
New forecast layout! Learn more

10-Day Weather Forecast

Advertisements
Track Severe Weather on mobile